createdAt,value
2023-04-01T00:00:55.927Z,100.00
2023-04-01T00:03:22.818Z,100.00
2023-04-01T00:05:49.503Z,100.00
2023-04-01T00:08:15.941Z,100.00
2023-04-01T00:10:42.392Z,100.00
2023-04-01T00:13:08.950Z,100.00
2023-04-01T00:15:35.493Z,100.00
2023-04-01T00:18:01.939Z,100.00
2023-04-01T00:20:28.910Z,100.00
2023-04-01T00:22:55.302Z,100.00
2023-04-01T00:25:21.736Z,100.00
2023-04-01T00:27:48.154Z,100.00
2023-04-01T00:30:14.876Z,100.00
2023-04-01T00:32:41.295Z,100.00
2023-04-01T00:35:08.170Z,100.00
2023-04-01T00:37:36.217Z,100.00
2023-04-01T00:40:02.666Z,100.00
2023-04-01T00:42:29.088Z,100.00
2023-04-01T00:44:55.646Z,100.00
2023-04-01T00:47:22.660Z,100.00
2023-04-01T00:49:50.849Z,100.00
2023-04-01T00:52:19.442Z,100.00
2023-04-01T00:54:47.061Z,100.00
2023-04-01T00:57:21.288Z,100.00
2023-04-01T00:59:49.543Z,100.00
2023-04-01T01:02:16.386Z,100.00
2023-04-01T01:04:42.891Z,100.00
2023-04-01T01:07:13.414Z,100.00
2023-04-01T01:09:44.837Z,100.00
2023-04-01T01:12:16.446Z,100.00
2023-04-01T01:15:01.076Z,100.00
2023-04-01T01:17:57.936Z,100.00
2023-04-01T01:20:32.279Z,100.00
2023-04-01T01:23:07.846Z,100.00
2023-04-01T01:25:52.921Z,100.00
2023-04-01T01:28:56.022Z,100.00
2023-04-01T01:31:26.308Z,100.00
2023-04-01T01:34:23.250Z,100.00
2023-04-01T01:36:51.133Z,100.00
2023-04-01T01:39:17.616Z,100.00
2023-04-01T01:41:44.175Z,100.00
2023-04-01T01:44:11.421Z,100.00
2023-04-01T01:46:37.928Z,100.00
2023-04-01T01:49:04.394Z,100.00
2023-04-01T01:51:30.798Z,100.00
2023-04-01T01:53:57.184Z,100.00
2023-04-01T01:56:24.660Z,100.00
2023-04-01T01:58:53.508Z,100.00
2023-04-01T02:01:27.716Z,100.00
2023-04-01T02:03:54.184Z,100.00
2023-04-01T02:06:22.877Z,100.00
2023-04-01T02:08:57.240Z,100.00
2023-04-01T02:11:27.364Z,100.00
2023-04-01T02:14:06.101Z,100.00
2023-04-01T02:16:50.545Z,100.00
2023-04-01T02:19:16.952Z,100.00
2023-04-01T02:21:43.353Z,100.00
2023-04-01T02:24:13.182Z,100.00
2023-04-01T02:26:39.616Z,100.00
2023-04-01T02:29:06.269Z,100.00
2023-04-01T02:31:32.721Z,100.00
2023-04-01T02:33:59.150Z,100.00
2023-04-01T02:36:25.613Z,100.00
2023-04-01T02:38:52.045Z,100.00
2023-04-01T02:41:18.480Z,100.00
2023-04-01T02:43:44.893Z,100.00
2023-04-01T02:46:11.320Z,100.00
2023-04-01T02:48:37.805Z,100.00
2023-04-01T02:51:04.287Z,100.00
2023-04-01T02:53:30.741Z,100.00
2023-04-01T02:55:57.166Z,100.00
2023-04-01T02:58:23.589Z,100.00
2023-04-01T03:00:50.040Z,100.00
2023-04-01T03:03:19.385Z,100.00
2023-04-01T03:05:45.874Z,100.00
2023-04-01T03:08:12.328Z,100.00
2023-04-01T03:10:38.738Z,100.00
2023-04-01T03:13:05.183Z,100.00
2023-04-01T03:15:31.879Z,100.00
2023-04-01T03:17:58.593Z,100.00
2023-04-01T03:20:25.033Z,100.00
2023-04-01T03:22:51.441Z,100.00
2023-04-01T03:25:18.639Z,100.00
2023-04-01T03:27:45.057Z,100.00
2023-04-01T03:30:11.829Z,100.00
2023-04-01T03:32:38.354Z,100.00
2023-04-01T03:35:05.291Z,100.00
2023-04-01T03:37:31.740Z,100.00
2023-04-01T03:39:58.225Z,100.00
2023-04-01T03:42:24.741Z,100.00
2023-04-01T03:44:51.217Z,100.00
2023-04-01T03:47:17.617Z,100.00
2023-04-01T03:49:44.086Z,100.00
2023-04-01T03:52:11.582Z,100.00
2023-04-01T03:54:38.197Z,100.00
2023-04-01T03:57:04.677Z,100.00
2023-04-01T03:59:31.152Z,100.00
2023-04-01T04:01:57.667Z,100.00
2023-04-01T04:04:24.126Z,100.00
2023-04-01T04:06:50.568Z,100.00
2023-04-01T04:09:16.999Z,100.00
2023-04-01T04:11:43.418Z,100.00
2023-04-01T04:14:09.894Z,100.00
2023-04-01T04:16:36.642Z,100.00
2023-04-01T04:19:03.925Z,100.00
2023-04-01T04:21:30.372Z,100.00
2023-04-01T04:23:56.804Z,100.00
2023-04-01T04:26:23.275Z,100.00
2023-04-01T04:28:49.728Z,100.00
2023-04-01T04:31:22.793Z,100.00
2023-04-01T04:33:49.405Z,100.00
2023-04-01T04:36:15.925Z,100.00
2023-04-01T04:38:42.550Z,100.00
2023-04-01T04:41:12.857Z,100.00
2023-04-01T04:43:40.301Z,100.00
2023-04-01T04:46:10.146Z,100.00
2023-04-01T04:48:36.608Z,100.00
2023-04-01T04:51:03.172Z,100.00
2023-04-01T04:53:29.730Z,100.00
2023-04-01T04:55:56.229Z,100.00
2023-04-01T04:58:22.687Z,100.00
2023-04-01T05:00:49.102Z,100.00
2023-04-01T05:03:15.784Z,100.00
2023-04-01T05:05:52.054Z,100.00
2023-04-01T05:08:18.480Z,100.00
2023-04-01T05:10:44.905Z,100.00
2023-04-01T05:13:11.587Z,100.00
2023-04-01T05:15:38.001Z,100.00
2023-04-01T05:18:04.592Z,100.00
2023-04-01T05:20:31.005Z,100.00
2023-04-01T05:22:58.079Z,100.00
2023-04-01T05:25:24.565Z,100.00
2023-04-01T05:27:50.970Z,100.00
2023-04-01T05:30:17.552Z,100.00
2023-04-01T05:32:44.000Z,100.00
2023-04-01T05:35:10.483Z,100.00
2023-04-01T05:37:37.028Z,100.00
2023-04-01T05:40:04.177Z,100.00
2023-04-01T05:42:30.610Z,100.00
2023-04-01T05:44:57.050Z,100.00
2023-04-01T05:47:23.649Z,100.00
2023-04-01T05:49:50.111Z,100.00
2023-04-01T05:52:16.541Z,100.00
2023-04-01T05:54:42.980Z,100.00
2023-04-01T05:57:09.420Z,100.00
2023-04-01T05:59:35.940Z,100.00
2023-04-01T06:02:02.352Z,100.00
2023-04-01T06:04:29.727Z,100.00
2023-04-01T06:06:56.200Z,100.00
2023-04-01T06:09:27.920Z,100.00
2023-04-01T06:12:08.668Z,100.00
2023-04-01T06:14:50.675Z,100.00
2023-04-01T06:17:46.857Z,100.00
2023-04-01T06:20:28.343Z,100.00
2023-04-01T06:23:16.147Z,100.00
2023-04-01T06:25:55.505Z,100.00
2023-04-01T06:28:40.731Z,100.00
2023-04-01T06:31:30.439Z,100.00
2023-04-01T06:34:08.868Z,100.00
2023-04-01T06:36:53.546Z,100.00
2023-04-01T06:39:42.614Z,100.00
2023-04-01T06:42:42.785Z,100.00
2023-04-01T06:45:31.311Z,100.00
2023-04-01T06:48:00.616Z,100.00
2023-04-01T06:50:34.263Z,100.00
2023-04-01T06:53:00.590Z,100.00
2023-04-01T06:55:36.140Z,100.00
2023-04-01T06:58:02.604Z,100.00
2023-04-01T07:00:32.490Z,100.00
2023-04-01T07:03:20.244Z,100.00
2023-04-01T07:05:46.840Z,100.00
2023-04-01T07:08:17.432Z,100.00
2023-04-01T07:11:08.581Z,100.00
2023-04-01T07:13:55.413Z,100.00
2023-04-01T07:16:35.522Z,100.00
2023-04-01T07:19:07.336Z,100.00
2023-04-01T07:21:41.203Z,100.00
2023-04-01T07:24:11.487Z,100.00
2023-04-01T07:26:37.999Z,100.00
2023-04-01T07:29:06.877Z,100.00
2023-04-01T07:32:07.296Z,100.00
2023-04-01T07:34:48.422Z,100.00
2023-04-01T07:37:21.765Z,100.00
2023-04-01T07:40:20.531Z,100.00
2023-04-01T07:43:08.514Z,100.00
2023-04-01T07:45:41.384Z,100.00
2023-04-01T07:48:39.082Z,100.00
2023-04-01T07:51:18.463Z,100.00
2023-04-01T07:53:58.768Z,100.00
2023-04-01T07:56:29.809Z,100.00
2023-04-01T07:58:59.143Z,100.00
2023-04-01T08:01:37.131Z,100.00
2023-04-01T08:04:15.678Z,100.00
2023-04-01T08:06:56.414Z,100.00
2023-04-01T08:10:04.428Z,100.00
2023-04-01T08:12:48.743Z,100.00
2023-04-01T08:15:28.390Z,100.00
2023-04-01T08:18:12.845Z,100.00
2023-04-01T08:20:43.130Z,100.00
2023-04-01T08:23:14.466Z,100.00
2023-04-01T08:25:45.728Z,100.00
2023-04-01T08:28:42.225Z,100.00
2023-04-01T08:31:30.506Z,100.00
2023-04-01T08:33:56.937Z,100.00
2023-04-01T08:36:32.347Z,100.00
2023-04-01T08:39:03.218Z,100.00
2023-04-01T08:42:00.692Z,100.00
2023-04-01T08:44:48.759Z,100.00
2023-04-01T08:47:35.623Z,100.00
2023-04-01T08:50:42.052Z,100.00
2023-04-01T08:53:27.186Z,100.00
2023-04-01T08:56:30.038Z,100.00
2023-04-01T08:59:15.365Z,100.00
2023-04-01T09:02:00.174Z,100.00
2023-04-01T09:05:11.477Z,100.00
2023-04-01T09:07:52.662Z,100.00
2023-04-01T09:11:03.954Z,100.00
2023-04-01T09:14:22.897Z,100.00
2023-04-01T09:17:13.453Z,100.00
2023-04-01T09:19:58.093Z,100.00
2023-04-01T09:23:12.055Z,100.00
2023-04-01T09:26:15.723Z,100.00
2023-04-01T09:29:11.701Z,100.00
2023-04-01T09:31:45.969Z,100.00
2023-04-01T09:34:40.169Z,100.00
2023-04-01T09:37:34.070Z,100.00
2023-04-01T09:40:19.321Z,100.00
2023-04-01T09:42:46.850Z,100.00
2023-04-01T09:45:22.543Z,100.00
2023-04-01T09:48:07.783Z,100.00
2023-04-01T09:50:43.293Z,100.00
2023-04-01T09:53:37.454Z,100.00
2023-04-01T09:56:09.819Z,100.00
2023-04-01T09:58:43.905Z,100.00
2023-04-01T10:01:50.174Z,100.00
2023-04-01T10:04:25.472Z,100.00
2023-04-01T10:07:10.300Z,100.00
2023-04-01T10:09:54.267Z,100.00
2023-04-01T10:12:48.715Z,100.00
2023-04-01T10:15:29.530Z,100.00
2023-04-01T10:17:59.840Z,100.00
2023-04-01T10:20:29.266Z,100.00
2023-04-01T10:23:03.623Z,100.00
2023-04-01T10:26:07.612Z,100.00
2023-04-01T10:28:48.926Z,100.00
2023-04-01T10:31:37.066Z,100.00
2023-04-01T10:34:23.690Z,100.00
2023-04-01T10:36:56.146Z,100.00
2023-04-01T10:39:35.315Z,100.00
2023-04-01T10:42:23.856Z,100.00
2023-04-01T10:45:07.732Z,100.00
2023-04-01T10:47:40.352Z,100.00
2023-04-01T10:50:17.033Z,100.00
2023-04-01T10:53:01.149Z,100.00
2023-04-01T10:55:45.003Z,100.00
2023-04-01T10:58:29.636Z,100.00
2023-04-01T11:01:31.415Z,100.00
2023-04-01T11:04:29.206Z,100.00
2023-04-01T11:07:17.418Z,100.00
2023-04-01T11:10:02.171Z,100.00
2023-04-01T11:12:50.368Z,100.00
2023-04-01T11:15:27.538Z,100.00
2023-04-01T11:18:01.532Z,100.00
2023-04-01T11:21:05.365Z,100.00
2023-04-01T11:24:03.899Z,100.00
2023-04-01T11:26:44.960Z,100.00
2023-04-01T11:29:33.152Z,100.00
2023-04-01T11:32:05.341Z,100.00
2023-04-01T11:34:59.228Z,100.00
2023-04-01T11:37:30.758Z,100.00
2023-04-01T11:40:34.029Z,100.00
2023-04-01T11:43:32.990Z,100.00
2023-04-01T11:46:09.416Z,100.00
2023-04-01T11:49:03.883Z,100.00
2023-04-01T11:51:54.768Z,100.00
2023-04-01T11:54:33.232Z,100.00
2023-04-01T11:57:19.835Z,100.00
2023-04-01T12:00:04.378Z,100.00
2023-04-01T12:02:57.349Z,100.00
2023-04-01T12:05:45.444Z,100.00
2023-04-01T12:08:22.334Z,100.00
2023-04-01T12:11:05.906Z,100.00
2023-04-01T12:14:02.257Z,100.00
2023-04-01T12:16:52.457Z,100.00
2023-04-01T12:19:21.265Z,100.00
2023-04-01T12:22:09.057Z,100.00
2023-04-01T12:24:47.545Z,100.00
2023-04-01T12:27:28.917Z,100.00
2023-04-01T12:30:07.466Z,100.00
2023-04-01T12:33:18.702Z,100.00
2023-04-01T12:36:01.532Z,100.00
2023-04-01T12:39:02.122Z,100.00
2023-04-01T12:41:41.925Z,100.00
2023-04-01T12:44:32.798Z,100.00
2023-04-01T12:47:05.086Z,100.00
2023-04-01T12:49:48.164Z,100.00
2023-04-01T12:52:35.494Z,100.00
2023-04-01T12:55:40.610Z,99.28
2023-04-01T12:58:12.862Z,100.00
2023-04-01T13:00:58.181Z,99.85
2023-04-01T13:03:48.731Z,99.46
2023-04-01T13:06:47.056Z,100.00
2023-04-01T13:09:39.146Z,100.00
2023-04-01T13:12:28.656Z,99.52
2023-04-01T13:15:06.156Z,99.52
2023-04-01T13:17:51.188Z,99.77
2023-04-01T13:20:42.326Z,98.92
2023-04-01T13:23:26.886Z,98.33
2023-04-01T13:26:14.946Z,98.03
2023-04-01T13:28:52.554Z,98.32
2023-04-01T13:31:25.026Z,98.31
2023-04-01T13:34:06.601Z,98.93
2023-04-01T13:37:21.200Z,98.75
2023-04-01T13:40:03.269Z,98.56
2023-04-01T13:42:36.237Z,97.35
2023-04-01T13:45:15.853Z,96.87
2023-04-01T13:48:12.810Z,96.88
2023-04-01T13:50:54.049Z,97.97
2023-04-01T13:53:35.566Z,97.89
2023-04-01T13:56:04.930Z,97.46
2023-04-01T13:58:44.904Z,98.10
2023-04-01T14:01:30.786Z,98.17
2023-04-01T14:04:28.532Z,97.61
2023-04-01T14:07:32.303Z,97.58
2023-04-01T14:10:21.648Z,97.20
2023-04-01T14:12:56.833Z,96.47
2023-04-01T14:15:32.465Z,97.14
2023-04-01T14:18:21.398Z,97.29
2023-04-01T14:21:31.594Z,96.17
2023-04-01T14:24:25.476Z,95.74
2023-04-01T14:27:19.477Z,95.54
2023-04-01T14:29:54.749Z,96.21
2023-04-01T14:32:45.206Z,96.51
2023-04-01T14:35:37.617Z,96.35
2023-04-01T14:38:24.966Z,96.66
2023-04-01T14:41:01.521Z,96.72
2023-04-01T14:43:50.830Z,96.86
2023-04-01T14:46:39.178Z,97.27
2023-04-01T14:49:17.474Z,97.01
2023-04-01T14:51:43.979Z,97.14
2023-04-01T14:54:32.363Z,97.19
2023-04-01T14:57:15.947Z,97.64
2023-04-01T15:00:08.643Z,97.50
2023-04-01T15:03:13.151Z,98.43
2023-04-01T15:06:11.929Z,98.17
2023-04-01T15:09:01.274Z,99.04
2023-04-01T15:11:30.576Z,99.63
2023-04-01T15:14:06.276Z,99.79
2023-04-01T15:16:42.467Z,99.62
2023-04-01T15:19:27.655Z,99.46
2023-04-01T15:22:02.842Z,99.43
2023-04-01T15:25:08.245Z,99.43
2023-04-01T15:28:14.761Z,99.81
2023-04-01T15:30:56.371Z,99.74
2023-04-01T15:33:46.328Z,100.00
2023-04-01T15:36:32.275Z,100.00
2023-04-01T15:39:15.658Z,100.00
2023-04-01T15:41:46.958Z,100.00
2023-04-01T15:44:28.705Z,100.00
2023-04-01T15:46:54.998Z,100.00
2023-04-01T15:49:24.309Z,100.00
2023-04-01T15:51:59.868Z,100.00
2023-04-01T15:54:38.344Z,100.00
2023-04-01T15:57:07.627Z,100.00
2023-04-01T16:00:09.611Z,100.00
2023-04-01T16:02:49.131Z,100.00
2023-04-01T16:05:31.435Z,100.00
2023-04-01T16:08:20.586Z,100.00
2023-04-01T16:11:09.861Z,100.00
2023-04-01T16:13:44.400Z,100.00
2023-04-01T16:16:51.064Z,100.00
2023-04-01T16:19:32.785Z,100.00
2023-04-01T16:22:02.425Z,100.00
2023-04-01T16:24:42.417Z,100.00
2023-04-01T16:27:14.937Z,100.00
2023-04-01T16:30:03.555Z,100.00
2023-04-01T16:32:45.643Z,100.00
2023-04-01T16:35:54.298Z,100.00
2023-04-01T16:38:47.362Z,100.00
2023-04-01T16:41:13.719Z,100.00
2023-04-01T16:43:50.326Z,100.00
2023-04-01T16:46:42.367Z,100.00
2023-04-01T16:49:11.658Z,100.00
2023-04-01T16:51:54.147Z,100.00
2023-04-01T16:54:40.751Z,100.00
2023-04-01T16:57:10.157Z,100.00
2023-04-01T16:59:38.539Z,100.00
2023-04-01T17:02:07.884Z,100.00
2023-04-01T17:04:52.190Z,100.00
2023-04-01T17:07:34.760Z,100.00
2023-04-01T17:10:21.923Z,100.00
2023-04-01T17:13:07.037Z,100.00
2023-04-01T17:15:52.191Z,100.00
2023-04-01T17:18:45.066Z,100.00
2023-04-01T17:21:14.724Z,100.00
2023-04-01T17:23:46.529Z,100.00
2023-04-01T17:26:21.951Z,99.52
2023-04-01T17:29:09.711Z,99.66
2023-04-01T17:31:44.696Z,99.76
2023-04-01T17:34:13.976Z,99.95
2023-04-01T17:36:58.717Z,100.00
2023-04-01T17:39:28.013Z,99.72
2023-04-01T17:42:18.667Z,99.56
2023-04-01T17:45:05.562Z,99.57
2023-04-01T17:47:38.093Z,99.23
2023-04-01T17:50:23.226Z,99.30
2023-04-01T17:53:02.346Z,98.64
2023-04-01T17:55:40.930Z,97.14
2023-04-01T17:58:22.477Z,97.24
2023-04-01T18:01:26.735Z,97.53
2023-04-01T18:03:55.962Z,97.68
2023-04-01T18:06:35.777Z,97.27
2023-04-01T18:09:11.118Z,96.39
2023-04-01T18:12:31.558Z,96.06
2023-04-01T18:15:19.596Z,96.04
2023-04-01T18:17:58.161Z,94.98
2023-04-01T18:20:44.943Z,95.44
2023-04-01T18:23:32.698Z,95.75
2023-04-01T18:26:34.614Z,95.72
2023-04-01T18:29:05.145Z,94.51
2023-04-01T18:31:37.649Z,94.95
2023-04-01T18:34:39.267Z,94.13
2023-04-01T18:37:20.762Z,94.47
2023-04-01T18:39:50.710Z,94.91
2023-04-01T18:42:44.877Z,95.02
2023-04-01T18:45:43.304Z,94.20
2023-04-01T18:48:32.571Z,94.17
2023-04-01T18:51:00.976Z,94.84
2023-04-01T18:53:32.328Z,93.05
2023-04-01T18:56:00.406Z,92.26
2023-04-01T18:58:32.901Z,92.01
2023-04-01T19:01:07.478Z,91.54
2023-04-01T19:03:42.178Z,91.16
2023-04-01T19:06:24.873Z,90.14
2023-04-01T19:08:52.083Z,91.07
2023-04-01T19:11:31.685Z,91.38
2023-04-01T19:14:25.994Z,91.86
2023-04-01T19:17:14.626Z,91.39
2023-04-01T19:19:50.022Z,91.65
2023-04-01T19:22:41.227Z,91.12
2023-04-01T19:25:16.648Z,91.26
2023-04-01T19:27:47.833Z,90.86
2023-04-01T19:30:20.252Z,90.39
2023-04-01T19:33:10.916Z,90.12
2023-04-01T19:36:06.680Z,89.23
2023-04-01T19:38:54.010Z,87.11
2023-04-01T19:41:30.349Z,86.83
2023-04-01T19:43:56.702Z,88.37
2023-04-01T19:46:34.036Z,87.61
2023-04-01T19:49:18.738Z,87.65
2023-04-01T19:51:59.924Z,87.16
2023-04-01T19:54:51.374Z,87.13
2023-04-01T19:57:47.309Z,86.52
2023-04-01T20:00:23.782Z,85.12
2023-04-01T20:02:56.617Z,85.25
2023-04-01T20:05:32.006Z,85.63
2023-04-01T20:08:10.121Z,85.25
2023-04-01T20:10:46.361Z,85.21
2023-04-01T20:14:00.039Z,85.30
2023-04-01T20:17:02.757Z,84.67
2023-04-01T20:19:54.811Z,85.14
2023-04-01T20:22:33.049Z,85.90
2023-04-01T20:25:06.070Z,85.38
2023-04-01T20:27:40.024Z,85.52
2023-04-01T20:30:06.420Z,85.87
2023-04-01T20:32:38.697Z,86.13
2023-04-01T20:35:36.866Z,86.62
2023-04-01T20:38:36.408Z,86.73
2023-04-01T20:41:35.690Z,86.32
2023-04-01T20:44:37.817Z,86.73
2023-04-01T20:47:10.238Z,86.88
2023-04-01T20:50:13.225Z,86.39
2023-04-01T20:52:43.660Z,87.27
2023-04-01T20:55:13.071Z,86.37
2023-04-01T20:57:57.644Z,85.27
2023-04-01T21:00:33.084Z,85.88
2023-04-01T21:03:30.026Z,84.66
2023-04-01T21:06:28.874Z,83.25
2023-04-01T21:09:27.487Z,84.46
2023-04-01T21:12:15.394Z,83.59
2023-04-01T21:15:19.179Z,83.39
2023-04-01T21:18:19.775Z,83.41
2023-04-01T21:21:16.497Z,83.37
2023-04-01T21:24:10.354Z,83.22
2023-04-01T21:27:09.067Z,83.91
2023-04-01T21:30:10.698Z,84.19
2023-04-01T21:33:08.129Z,84.72
2023-04-01T21:36:02.610Z,84.35
2023-04-01T21:38:34.751Z,84.24
2023-04-01T21:41:26.517Z,84.67
2023-04-01T21:44:40.533Z,85.18
2023-04-01T21:47:28.316Z,85.31
2023-04-01T21:50:28.571Z,85.39
2023-04-01T21:53:36.969Z,85.91
2023-04-01T21:56:28.193Z,86.69
2023-04-01T21:58:54.498Z,86.87
2023-04-01T22:01:32.961Z,86.89
2023-04-01T22:04:17.625Z,87.52
2023-04-01T22:06:51.205Z,86.90
2023-04-01T22:09:33.033Z,87.17
2023-04-01T22:12:01.821Z,88.04
2023-04-01T22:15:08.779Z,87.39
2023-04-01T22:18:13.496Z,87.05
2023-04-01T22:21:10.278Z,86.68
2023-04-01T22:24:05.756Z,86.73
2023-04-01T22:26:38.270Z,86.64
2023-04-01T22:29:07.641Z,86.26
2023-04-01T22:32:11.880Z,87.53
2023-04-01T22:34:49.822Z,86.75
2023-04-01T22:37:16.161Z,87.43
2023-04-01T22:40:01.847Z,87.43
2023-04-01T22:43:07.020Z,87.61
2023-04-01T22:45:52.141Z,86.47
2023-04-01T22:48:45.844Z,86.34
2023-04-01T22:51:30.534Z,85.62
2023-04-01T22:54:15.629Z,86.06
2023-04-01T22:56:46.818Z,86.25
2023-04-01T22:59:22.887Z,86.79
2023-04-01T23:02:00.975Z,86.92
2023-04-01T23:04:32.885Z,85.85
2023-04-01T23:07:02.184Z,85.71
2023-04-01T23:09:32.728Z,86.00
2023-04-01T23:12:03.229Z,86.26
2023-04-01T23:14:55.967Z,86.06
2023-04-01T23:17:25.378Z,86.66
2023-04-01T23:20:10.516Z,86.29
2023-04-01T23:22:58.264Z,85.93
2023-04-01T23:25:27.415Z,85.61
2023-04-01T23:28:16.552Z,86.09
2023-04-01T23:30:47.780Z,85.61
2023-04-01T23:33:19.885Z,85.67
2023-04-01T23:36:11.018Z,86.49
2023-04-01T23:38:43.924Z,86.01
2023-04-01T23:41:26.892Z,86.23
2023-04-01T23:43:57.406Z,86.36
2023-04-01T23:46:23.914Z,85.36
2023-04-01T23:48:50.421Z,84.89
2023-04-01T23:51:24.442Z,85.03
2023-04-01T23:53:58.337Z,85.63
2023-04-01T23:56:34.599Z,85.18
2023-04-01T23:59:01.042Z,84.35
